sensor_id;sensor_type;location;lat;lon;timestamp;P1;durP1;ratioP1;P2;durP2;ratioP2
10005;SDS011;5042;42.626;23.382;2022-07-15T00:02:17;1.50;;;1.40;;
10005;SDS011;5042;42.626;23.382;2022-07-15T00:04:44;1.80;;;1.30;;
10005;SDS011;5042;42.626;23.382;2022-07-15T00:07:11;1.47;;;1.37;;
10005;SDS011;5042;42.626;23.382;2022-07-15T00:09:37;1.40;;;1.40;;
10005;SDS011;5042;42.626;23.382;2022-07-15T00:12:21;1.50;;;1.40;;
10005;SDS011;5042;42.626;23.382;2022-07-15T00:14:48;1.35;;;1.30;;
10005;SDS011;5042;42.626;23.382;2022-07-15T00:17:15;1.35;;;1.23;;
10005;SDS011;5042;42.626;23.382;2022-07-15T00:19:43;1.40;;;1.30;;
10005;SDS011;5042;42.626;23.382;2022-07-15T00:22:10;1.20;;;1.20;;
10005;SDS011;5042;42.626;23.382;2022-07-15T00:24:37;2.80;;;1.23;;
10005;SDS011;5042;42.626;23.382;2022-07-15T00:27:04;1.27;;;1.27;;
10005;SDS011;5042;42.626;23.382;2022-07-15T00:29:31;1.20;;;1.20;;
10005;SDS011;5042;42.626;23.382;2022-07-15T00:31:58;1.42;;;1.33;;
10005;SDS011;5042;42.626;23.382;2022-07-15T00:34:25;1.15;;;1.15;;
10005;SDS011;5042;42.626;23.382;2022-07-15T00:36:53;1.50;;;1.40;;
10005;SDS011;5042;42.626;23.382;2022-07-15T00:39:19;1.17;;;1.17;;
10005;SDS011;5042;42.626;23.382;2022-07-15T00:41:46;4.97;;;1.27;;
10005;SDS011;5042;42.626;23.382;2022-07-15T00:44:13;1.40;;;1.30;;
10005;SDS011;5042;42.626;23.382;2022-07-15T00:46:40;1.30;;;1.30;;
10005;SDS011;5042;42.626;23.382;2022-07-15T00:49:08;2.58;;;1.50;;
10005;SDS011;5042;42.626;23.382;2022-07-15T00:51:40;1.45;;;1.35;;
10005;SDS011;5042;42.626;23.382;2022-07-15T00:54:10;1.30;;;1.30;;
10005;SDS011;5042;42.626;23.382;2022-07-15T00:56:39;3.85;;;1.98;;
10005;SDS011;5042;42.626;23.382;2022-07-15T00:59:10;3.10;;;1.60;;
10005;SDS011;5042;42.626;23.382;2022-07-15T01:01:39;1.58;;;1.48;;
10005;SDS011;5042;42.626;23.382;2022-07-15T01:04:07;1.42;;;1.35;;
10005;SDS011;5042;42.626;23.382;2022-07-15T01:06:35;1.60;;;1.50;;
10005;SDS011;5042;42.626;23.382;2022-07-15T01:09:02;1.30;;;1.20;;
10005;SDS011;5042;42.626;23.382;2022-07-15T01:11:30;1.20;;;1.20;;
10005;SDS011;5042;42.626;23.382;2022-07-15T01:13:57;1.45;;;1.35;;
10005;SDS011;5042;42.626;23.382;2022-07-15T01:16:25;1.40;;;1.30;;
10005;SDS011;5042;42.626;23.382;2022-07-15T01:18:52;1.30;;;1.30;;
10005;SDS011;5042;42.626;23.382;2022-07-15T01:21:20;1.20;;;1.20;;
10005;SDS011;5042;42.626;23.382;2022-07-15T01:23:47;1.90;;;1.60;;
10005;SDS011;5042;42.626;23.382;2022-07-15T01:26:15;2.17;;;1.40;;
10005;SDS011;5042;42.626;23.382;2022-07-15T01:28:42;1.50;;;1.50;;
10005;SDS011;5042;42.626;23.382;2022-07-15T01:31:09;1.40;;;1.40;;
10005;SDS011;5042;42.626;23.382;2022-07-15T01:33:36;1.30;;;1.20;;
10005;SDS011;5042;42.626;23.382;2022-07-15T01:36:04;1.40;;;1.30;;
10005;SDS011;5042;42.626;23.382;2022-07-15T01:38:32;1.50;;;1.40;;
10005;SDS011;5042;42.626;23.382;2022-07-15T01:40:59;1.40;;;1.30;;
10005;SDS011;5042;42.626;23.382;2022-07-15T01:43:26;1.60;;;1.50;;
10005;SDS011;5042;42.626;23.382;2022-07-15T01:45:52;1.23;;;1.20;;
10005;SDS011;5042;42.626;23.382;2022-07-15T01:48:19;2.33;;;1.70;;
10005;SDS011;5042;42.626;23.382;2022-07-15T01:51:03;1.67;;;1.57;;
10005;SDS011;5042;42.626;23.382;2022-07-15T01:53:30;2.73;;;1.40;;
10005;SDS011;5042;42.626;23.382;2022-07-15T01:55:58;1.60;;;1.50;;
10005;SDS011;5042;42.626;23.382;2022-07-15T01:58:25;1.60;;;1.50;;
10005;SDS011;5042;42.626;23.382;2022-07-15T02:00:52;1.53;;;1.40;;
10005;SDS011;5042;42.626;23.382;2022-07-15T02:03:18;1.60;;;1.50;;
10005;SDS011;5042;42.626;23.382;2022-07-15T02:05:45;1.50;;;1.40;;
10005;SDS011;5042;42.626;23.382;2022-07-15T02:08:12;1.50;;;1.40;;
10005;SDS011;5042;42.626;23.382;2022-07-15T02:10:38;3.17;;;1.67;;
10005;SDS011;5042;42.626;23.382;2022-07-15T02:13:09;1.50;;;1.40;;
10005;SDS011;5042;42.626;23.382;2022-07-15T02:15:38;1.40;;;1.40;;
10005;SDS011;5042;42.626;23.382;2022-07-15T02:18:07;1.80;;;1.70;;
10005;SDS011;5042;42.626;23.382;2022-07-15T02:20:35;1.40;;;1.30;;
10005;SDS011;5042;42.626;23.382;2022-07-15T02:23:02;1.60;;;1.50;;
10005;SDS011;5042;42.626;23.382;2022-07-15T02:25:30;1.50;;;1.40;;
10005;SDS011;5042;42.626;23.382;2022-07-15T02:27:58;2.00;;;1.50;;
10005;SDS011;5042;42.626;23.382;2022-07-15T02:30:29;1.90;;;1.80;;
10005;SDS011;5042;42.626;23.382;2022-07-15T02:32:58;1.60;;;1.50;;
10005;SDS011;5042;42.626;23.382;2022-07-15T02:35:25;2.00;;;1.50;;
10005;SDS011;5042;42.626;23.382;2022-07-15T02:37:52;1.50;;;1.40;;
10005;SDS011;5042;42.626;23.382;2022-07-15T02:40:19;2.10;;;1.40;;
10005;SDS011;5042;42.626;23.382;2022-07-15T02:42:46;1.73;;;1.50;;
10005;SDS011;5042;42.626;23.382;2022-07-15T02:45:14;1.70;;;1.60;;
10005;SDS011;5042;42.626;23.382;2022-07-15T02:47:42;1.50;;;1.50;;
10005;SDS011;5042;42.626;23.382;2022-07-15T02:50:09;3.00;;;1.77;;
10005;SDS011;5042;42.626;23.382;2022-07-15T02:52:36;1.80;;;1.70;;
10005;SDS011;5042;42.626;23.382;2022-07-15T02:55:03;1.70;;;1.63;;
10005;SDS011;5042;42.626;23.382;2022-07-15T02:57:31;1.80;;;1.70;;
10005;SDS011;5042;42.626;23.382;2022-07-15T02:59:57;1.93;;;1.83;;
10005;SDS011;5042;42.626;23.382;2022-07-15T03:02:24;1.63;;;1.57;;
10005;SDS011;5042;42.626;23.382;2022-07-15T03:04:52;2.13;;;1.93;;
10005;SDS011;5042;42.626;23.382;2022-07-15T03:07:19;1.90;;;1.80;;
10005;SDS011;5042;42.626;23.382;2022-07-15T03:09:46;2.00;;;1.90;;
10005;SDS011;5042;42.626;23.382;2022-07-15T03:12:13;1.80;;;1.70;;
10005;SDS011;5042;42.626;23.382;2022-07-15T03:14:39;3.30;;;3.10;;
10005;SDS011;5042;42.626;23.382;2022-07-15T03:17:06;2.20;;;1.70;;
10005;SDS011;5042;42.626;23.382;2022-07-15T03:19:33;1.97;;;1.77;;
10005;SDS011;5042;42.626;23.382;2022-07-15T03:22:02;2.37;;;2.27;;
10005;SDS011;5042;42.626;23.382;2022-07-15T03:24:28;1.90;;;1.80;;
10005;SDS011;5042;42.626;23.382;2022-07-15T03:26:55;1.83;;;1.73;;
10005;SDS011;5042;42.626;23.382;2022-07-15T03:29:22;2.00;;;1.90;;
10005;SDS011;5042;42.626;23.382;2022-07-15T03:31:49;1.90;;;1.80;;
10005;SDS011;5042;42.626;23.382;2022-07-15T03:34:17;2.00;;;1.90;;
10005;SDS011;5042;42.626;23.382;2022-07-15T03:36:44;2.00;;;1.90;;
10005;SDS011;5042;42.626;23.382;2022-07-15T03:39:12;1.90;;;1.80;;
10005;SDS011;5042;42.626;23.382;2022-07-15T03:41:39;1.90;;;1.80;;
10005;SDS011;5042;42.626;23.382;2022-07-15T03:44:05;1.83;;;1.70;;
10005;SDS011;5042;42.626;23.382;2022-07-15T03:46:32;2.77;;;1.73;;
10005;SDS011;5042;42.626;23.382;2022-07-15T03:48:59;1.90;;;1.80;;
10005;SDS011;5042;42.626;23.382;2022-07-15T03:51:27;2.80;;;1.40;;
10005;SDS011;5042;42.626;23.382;2022-07-15T03:53:56;3.47;;;1.70;;
10005;SDS011;5042;42.626;23.382;2022-07-15T03:56:24;2.23;;;1.80;;
10005;SDS011;5042;42.626;23.382;2022-07-15T03:58:51;2.10;;;1.90;;
10005;SDS011;5042;42.626;23.382;2022-07-15T04:01:18;2.10;;;2.00;;
10005;SDS011;5042;42.626;23.382;2022-07-15T04:03:46;1.80;;;1.70;;
10005;SDS011;5042;42.626;23.382;2022-07-15T04:06:13;2.53;;;1.87;;
10005;SDS011;5042;42.626;23.382;2022-07-15T04:08:39;1.48;;;1.48;;
10005;SDS011;5042;42.626;23.382;2022-07-15T04:11:06;1.83;;;1.73;;
10005;SDS011;5042;42.626;23.382;2022-07-15T04:13:35;1.77;;;1.67;;
10005;SDS011;5042;42.626;23.382;2022-07-15T04:16:01;1.80;;;1.70;;
10005;SDS011;5042;42.626;23.382;2022-07-15T04:18:28;1.80;;;1.70;;
10005;SDS011;5042;42.626;23.382;2022-07-15T04:20:55;1.90;;;1.80;;
10005;SDS011;5042;42.626;23.382;2022-07-15T04:23:22;2.92;;;1.80;;
10005;SDS011;5042;42.626;23.382;2022-07-15T04:25:49;2.20;;;1.55;;
10005;SDS011;5042;42.626;23.382;2022-07-15T04:28:17;1.88;;;1.73;;
10005;SDS011;5042;42.626;23.382;2022-07-15T04:30:45;1.63;;;1.52;;
10005;SDS011;5042;42.626;23.382;2022-07-15T04:33:11;1.90;;;1.80;;
10005;SDS011;5042;42.626;23.382;2022-07-15T04:35:38;3.40;;;1.83;;
10005;SDS011;5042;42.626;23.382;2022-07-15T04:38:05;2.15;;;2.05;;
10005;SDS011;5042;42.626;23.382;2022-07-15T04:40:32;1.80;;;1.70;;
10005;SDS011;5042;42.626;23.382;2022-07-15T04:42:59;2.17;;;1.98;;
10005;SDS011;5042;42.626;23.382;2022-07-15T04:45:26;2.67;;;1.63;;
10005;SDS011;5042;42.626;23.382;2022-07-15T04:47:54;1.80;;;1.70;;
10005;SDS011;5042;42.626;23.382;2022-07-15T04:50:21;2.10;;;1.90;;
10005;SDS011;5042;42.626;23.382;2022-07-15T04:53:05;2.25;;;2.05;;
10005;SDS011;5042;42.626;23.382;2022-07-15T04:55:32;2.47;;;2.28;;
10005;SDS011;5042;42.626;23.382;2022-07-15T04:57:59;1.95;;;1.85;;
10005;SDS011;5042;42.626;23.382;2022-07-15T05:00:26;2.58;;;2.03;;
10005;SDS011;5042;42.626;23.382;2022-07-15T05:02:55;2.38;;;2.17;;
10005;SDS011;5042;42.626;23.382;2022-07-15T05:05:22;2.15;;;1.95;;
10005;SDS011;5042;42.626;23.382;2022-07-15T05:07:48;2.65;;;1.50;;
10005;SDS011;5042;42.626;23.382;2022-07-15T05:10:16;1.70;;;1.60;;
10005;SDS011;5042;42.626;23.382;2022-07-15T05:12:43;2.35;;;1.48;;
10005;SDS011;5042;42.626;23.382;2022-07-15T05:15:09;1.50;;;1.40;;
10005;SDS011;5042;42.626;23.382;2022-07-15T05:17:36;1.70;;;1.60;;
10005;SDS011;5042;42.626;23.382;2022-07-15T05:20:08;2.17;;;2.03;;
10005;SDS011;5042;42.626;23.382;2022-07-15T05:22:35;1.90;;;1.80;;
10005;SDS011;5042;42.626;23.382;2022-07-15T05:25:02;1.60;;;1.50;;
10005;SDS011;5042;42.626;23.382;2022-07-15T05:27:30;1.65;;;1.55;;
10005;SDS011;5042;42.626;23.382;2022-07-15T05:29:56;2.67;;;1.60;;
10005;SDS011;5042;42.626;23.382;2022-07-15T05:32:23;1.83;;;1.73;;
10005;SDS011;5042;42.626;23.382;2022-07-15T05:34:50;2.00;;;1.70;;
10005;SDS011;5042;42.626;23.382;2022-07-15T05:37:18;2.65;;;1.50;;
10005;SDS011;5042;42.626;23.382;2022-07-15T05:39:45;1.55;;;1.45;;
10005;SDS011;5042;42.626;23.382;2022-07-15T05:42:19;3.72;;;1.40;;
10005;SDS011;5042;42.626;23.382;2022-07-15T05:44:46;2.10;;;1.90;;
10005;SDS011;5042;42.626;23.382;2022-07-15T05:47:13;1.60;;;1.50;;
10005;SDS011;5042;42.626;23.382;2022-07-15T05:49:40;1.70;;;1.60;;
10005;SDS011;5042;42.626;23.382;2022-07-15T05:52:06;2.33;;;1.70;;
10005;SDS011;5042;42.626;23.382;2022-07-15T05:54:35;1.77;;;1.40;;
10005;SDS011;5042;42.626;23.382;2022-07-15T05:57:03;1.52;;;1.42;;
10005;SDS011;5042;42.626;23.382;2022-07-15T05:59:30;3.58;;;1.85;;
10005;SDS011;5042;42.626;23.382;2022-07-15T06:01:57;2.33;;;1.60;;
10005;SDS011;5042;42.626;23.382;2022-07-15T06:04:24;2.03;;;1.88;;
10005;SDS011;5042;42.626;23.382;2022-07-15T06:06:51;1.38;;;1.30;;
10005;SDS011;5042;42.626;23.382;2022-07-15T06:09:18;1.38;;;1.38;;
10005;SDS011;5042;42.626;23.382;2022-07-15T06:11:46;1.35;;;1.35;;
10005;SDS011;5042;42.626;23.382;2022-07-15T06:14:13;1.85;;;1.75;;
10005;SDS011;5042;42.626;23.382;2022-07-15T06:16:40;1.55;;;1.50;;
10005;SDS011;5042;42.626;23.382;2022-07-15T06:19:06;1.80;;;1.70;;
10005;SDS011;5042;42.626;23.382;2022-07-15T06:21:34;2.47;;;2.35;;
10005;SDS011;5042;42.626;23.382;2022-07-15T06:24:01;1.48;;;1.38;;
10005;SDS011;5042;42.626;23.382;2022-07-15T06:26:28;1.80;;;1.33;;
10005;SDS011;5042;42.626;23.382;2022-07-15T06:28:56;1.70;;;1.50;;
10005;SDS011;5042;42.626;23.382;2022-07-15T06:31:23;1.92;;;1.83;;
10005;SDS011;5042;42.626;23.382;2022-07-15T06:33:49;1.65;;;1.55;;
10005;SDS011;5042;42.626;23.382;2022-07-15T06:36:16;1.65;;;1.55;;
10005;SDS011;5042;42.626;23.382;2022-07-15T06:38:43;1.52;;;1.42;;
10005;SDS011;5042;42.626;23.382;2022-07-15T06:41:09;1.70;;;1.60;;
10005;SDS011;5042;42.626;23.382;2022-07-15T06:43:36;1.38;;;1.30;;
10005;SDS011;5042;42.626;23.382;2022-07-15T06:46:04;1.50;;;1.40;;
10005;SDS011;5042;42.626;23.382;2022-07-15T06:48:31;2.38;;;1.40;;
10005;SDS011;5042;42.626;23.382;2022-07-15T06:50:58;2.97;;;1.50;;
10005;SDS011;5042;42.626;23.382;2022-07-15T06:53:24;1.67;;;1.40;;
10005;SDS011;5042;42.626;23.382;2022-07-15T06:55:51;3.15;;;1.77;;
10005;SDS011;5042;42.626;23.382;2022-07-15T06:58:18;1.60;;;1.50;;
10005;SDS011;5042;42.626;23.382;2022-07-15T07:00:45;4.15;;;2.13;;
10005;SDS011;5042;42.626;23.382;2022-07-15T07:03:13;1.70;;;1.60;;
10005;SDS011;5042;42.626;23.382;2022-07-15T07:05:40;2.08;;;1.90;;
10005;SDS011;5042;42.626;23.382;2022-07-15T07:08:06;1.70;;;1.60;;
10005;SDS011;5042;42.626;23.382;2022-07-15T07:10:34;4.05;;;1.60;;
10005;SDS011;5042;42.626;23.382;2022-07-15T07:13:00;3.03;;;1.98;;
10005;SDS011;5042;42.626;23.382;2022-07-15T07:15:27;4.35;;;1.70;;
10005;SDS011;5042;42.626;23.382;2022-07-15T07:17:54;1.77;;;1.60;;
10005;SDS011;5042;42.626;23.382;2022-07-15T07:20:22;2.90;;;2.20;;
10005;SDS011;5042;42.626;23.382;2022-07-15T07:22:49;3.60;;;2.33;;
10005;SDS011;5042;42.626;23.382;2022-07-15T07:25:16;2.92;;;2.10;;
10005;SDS011;5042;42.626;23.382;2022-07-15T07:27:43;3.17;;;2.67;;
10005;SDS011;5042;42.626;23.382;2022-07-15T07:30:09;2.08;;;1.98;;
10005;SDS011;5042;42.626;23.382;2022-07-15T07:32:36;4.35;;;2.17;;
10005;SDS011;5042;42.626;23.382;2022-07-15T07:35:03;5.93;;;2.88;;
10005;SDS011;5042;42.626;23.382;2022-07-15T07:37:34;2.50;;;1.98;;
10005;SDS011;5042;42.626;23.382;2022-07-15T07:40:02;3.30;;;1.98;;
10005;SDS011;5042;42.626;23.382;2022-07-15T07:42:30;2.72;;;1.90;;
10005;SDS011;5042;42.626;23.382;2022-07-15T07:44:56;4.65;;;2.10;;
10005;SDS011;5042;42.626;23.382;2022-07-15T07:47:24;2.92;;;1.90;;
10005;SDS011;5042;42.626;23.382;2022-07-15T07:49:51;1.60;;;1.50;;
10005;SDS011;5042;42.626;23.382;2022-07-15T07:52:21;2.92;;;1.77;;
10005;SDS011;5042;42.626;23.382;2022-07-15T07:54:49;2.00;;;1.80;;
10005;SDS011;5042;42.626;23.382;2022-07-15T07:57:16;1.85;;;1.70;;
10005;SDS011;5042;42.626;23.382;2022-07-15T07:59:43;1.70;;;1.60;;
10005;SDS011;5042;42.626;23.382;2022-07-15T08:02:09;3.40;;;1.58;;
10005;SDS011;5042;42.626;23.382;2022-07-15T08:04:36;2.17;;;1.70;;
10005;SDS011;5042;42.626;23.382;2022-07-15T08:07:05;1.80;;;1.70;;
10005;SDS011;5042;42.626;23.382;2022-07-15T08:09:33;4.22;;;1.60;;
10005;SDS011;5042;42.626;23.382;2022-07-15T08:12:01;1.58;;;1.30;;
10005;SDS011;5042;42.626;23.382;2022-07-15T08:14:29;1.50;;;1.40;;
10005;SDS011;5042;42.626;23.382;2022-07-15T08:16:55;2.35;;;2.10;;
10005;SDS011;5042;42.626;23.382;2022-07-15T08:19:22;1.60;;;1.50;;
10005;SDS011;5042;42.626;23.382;2022-07-15T08:21:49;1.60;;;1.48;;
10005;SDS011;5042;42.626;23.382;2022-07-15T08:24:16;1.80;;;1.70;;
10005;SDS011;5042;42.626;23.382;2022-07-15T08:26:43;1.65;;;1.55;;
10005;SDS011;5042;42.626;23.382;2022-07-15T08:29:11;2.10;;;1.88;;
10005;SDS011;5042;42.626;23.382;2022-07-15T08:31:38;1.90;;;1.73;;
10005;SDS011;5042;42.626;23.382;2022-07-15T08:34:05;1.52;;;1.40;;
10005;SDS011;5042;42.626;23.382;2022-07-15T08:36:32;1.70;;;1.60;;
10005;SDS011;5042;42.626;23.382;2022-07-15T08:38:59;2.17;;;1.50;;
10005;SDS011;5042;42.626;23.382;2022-07-15T08:41:26;1.52;;;1.42;;
10005;SDS011;5042;42.626;23.382;2022-07-15T08:43:53;2.03;;;1.83;;
10005;SDS011;5042;42.626;23.382;2022-07-15T08:46:21;2.08;;;1.58;;
10005;SDS011;5042;42.626;23.382;2022-07-15T08:48:51;1.70;;;1.50;;
10005;SDS011;5042;42.626;23.382;2022-07-15T08:51:21;1.45;;;1.35;;
10005;SDS011;5042;42.626;23.382;2022-07-15T08:53:49;1.48;;;1.45;;
10005;SDS011;5042;42.626;23.382;2022-07-15T08:56:17;1.80;;;1.70;;
10005;SDS011;5042;42.626;23.382;2022-07-15T08:58:44;2.22;;;1.55;;
10005;SDS011;5042;42.626;23.382;2022-07-15T09:01:12;1.40;;;1.30;;
10005;SDS011;5042;42.626;23.382;2022-07-15T09:03:41;1.50;;;1.40;;
10005;SDS011;5042;42.626;23.382;2022-07-15T09:06:07;1.50;;;1.40;;
10005;SDS011;5042;42.626;23.382;2022-07-15T09:08:34;2.35;;;1.35;;
10005;SDS011;5042;42.626;23.382;2022-07-15T09:11:01;1.77;;;1.30;;
10005;SDS011;5042;42.626;23.382;2022-07-15T09:13:29;2.83;;;1.65;;
10005;SDS011;5042;42.626;23.382;2022-07-15T09:15:58;1.45;;;1.35;;
10005;SDS011;5042;42.626;23.382;2022-07-15T09:18:27;1.60;;;1.50;;
10005;SDS011;5042;42.626;23.382;2022-07-15T09:20:57;1.80;;;1.65;;
10005;SDS011;5042;42.626;23.382;2022-07-15T09:23:24;1.55;;;1.45;;
10005;SDS011;5042;42.626;23.382;2022-07-15T09:25:57;3.17;;;1.70;;
10005;SDS011;5042;42.626;23.382;2022-07-15T09:28:37;1.25;;;1.25;;
10005;SDS011;5042;42.626;23.382;2022-07-15T09:31:06;2.38;;;1.38;;
10005;SDS011;5042;42.626;23.382;2022-07-15T09:33:50;1.75;;;1.65;;
10005;SDS011;5042;42.626;23.382;2022-07-15T09:36:27;1.75;;;1.45;;
10005;SDS011;5042;42.626;23.382;2022-07-15T09:38:55;1.60;;;1.50;;
10005;SDS011;5042;42.626;23.382;2022-07-15T09:41:26;1.70;;;1.60;;
10005;SDS011;5042;42.626;23.382;2022-07-15T09:43:56;1.73;;;1.63;;
10005;SDS011;5042;42.626;23.382;2022-07-15T09:46:26;1.30;;;1.30;;
10005;SDS011;5042;42.626;23.382;2022-07-15T09:48:54;1.48;;;1.45;;
10005;SDS011;5042;42.626;23.382;2022-07-15T09:51:22;2.42;;;1.63;;
10005;SDS011;5042;42.626;23.382;2022-07-15T09:53:50;1.45;;;1.35;;
10005;SDS011;5042;42.626;23.382;2022-07-15T09:56:18;1.60;;;1.50;;
10005;SDS011;5042;42.626;23.382;2022-07-15T09:58:51;5.15;;;1.48;;
10005;SDS011;5042;42.626;23.382;2022-07-15T10:01:18;1.52;;;1.40;;
10005;SDS011;5042;42.626;23.382;2022-07-15T10:03:45;1.58;;;1.48;;
10005;SDS011;5042;42.626;23.382;2022-07-15T10:06:13;1.48;;;1.45;;
10005;SDS011;5042;42.626;23.382;2022-07-15T10:08:45;1.70;;;1.60;;
10005;SDS011;5042;42.626;23.382;2022-07-15T10:11:14;1.65;;;1.60;;
10005;SDS011;5042;42.626;23.382;2022-07-15T10:16:52;1.88;;;1.63;;
10005;SDS011;5042;42.626;23.382;2022-07-15T10:19:30;1.58;;;1.48;;
10005;SDS011;5042;42.626;23.382;2022-07-15T10:22:09;2.10;;;1.95;;
10005;SDS011;5042;42.626;23.382;2022-07-15T10:24:51;1.70;;;1.60;;
10005;SDS011;5042;42.626;23.382;2022-07-15T10:27:33;1.80;;;1.70;;
10005;SDS011;5042;42.626;23.382;2022-07-15T10:30:10;1.90;;;1.80;;
10005;SDS011;5042;42.626;23.382;2022-07-15T10:35:45;2.47;;;1.60;;
10005;SDS011;5042;42.626;23.382;2022-07-15T10:38:20;1.52;;;1.42;;
10005;SDS011;5042;42.626;23.382;2022-07-15T10:40:55;1.67;;;1.58;;
10005;SDS011;5042;42.626;23.382;2022-07-15T10:43:32;1.90;;;1.80;;
10005;SDS011;5042;42.626;23.382;2022-07-15T10:46:04;3.38;;;1.63;;
10005;SDS011;5042;42.626;23.382;2022-07-15T10:48:38;1.75;;;1.70;;
10005;SDS011;5042;42.626;23.382;2022-07-15T10:51:04;1.55;;;1.50;;
10005;SDS011;5042;42.626;23.382;2022-07-15T10:53:31;1.88;;;1.77;;
10005;SDS011;5042;42.626;23.382;2022-07-15T10:59:10;2.33;;;1.42;;
10005;SDS011;5042;42.626;23.382;2022-07-15T11:01:38;1.77;;;1.67;;
10005;SDS011;5042;42.626;23.382;2022-07-15T11:04:12;1.73;;;1.63;;
10005;SDS011;5042;42.626;23.382;2022-07-15T11:09:53;1.75;;;1.65;;
10005;SDS011;5042;42.626;23.382;2022-07-15T11:12:21;2.95;;;1.60;;
10005;SDS011;5042;42.626;23.382;2022-07-15T11:14:52;1.80;;;1.70;;
10005;SDS011;5042;42.626;23.382;2022-07-15T11:17:21;1.80;;;1.70;;
10005;SDS011;5042;42.626;23.382;2022-07-15T11:19:51;1.80;;;1.70;;
10005;SDS011;5042;42.626;23.382;2022-07-15T11:22:20;1.85;;;1.63;;
10005;SDS011;5042;42.626;23.382;2022-07-15T11:24:47;2.28;;;1.90;;
10005;SDS011;5042;42.626;23.382;2022-07-15T11:27:14;1.90;;;1.80;;
10005;SDS011;5042;42.626;23.382;2022-07-15T11:29:45;1.67;;;1.58;;
10005;SDS011;5042;42.626;23.382;2022-07-15T11:32:16;1.58;;;1.40;;
10005;SDS011;5042;42.626;23.382;2022-07-15T11:34:44;1.58;;;1.48;;
10005;SDS011;5042;42.626;23.382;2022-07-15T11:37:13;1.60;;;1.50;;
10005;SDS011;5042;42.626;23.382;2022-07-15T11:39:44;1.30;;;1.30;;
10005;SDS011;5042;42.626;23.382;2022-07-15T11:42:21;1.27;;;1.27;;
10005;SDS011;5042;42.626;23.382;2022-07-15T11:45:07;1.60;;;1.50;;
10005;SDS011;5042;42.626;23.382;2022-07-15T11:47:45;1.77;;;1.67;;
10005;SDS011;5042;42.626;23.382;2022-07-15T11:50:17;2.13;;;1.92;;
10005;SDS011;5042;42.626;23.382;2022-07-15T11:52:44;1.92;;;1.77;;
10005;SDS011;5042;42.626;23.382;2022-07-15T11:55:12;2.22;;;2.03;;
10005;SDS011;5042;42.626;23.382;2022-07-15T11:57:43;1.50;;;1.40;;
10005;SDS011;5042;42.626;23.382;2022-07-15T12:00:12;2.08;;;1.98;;
10005;SDS011;5042;42.626;23.382;2022-07-15T12:02:40;5.40;;;2.08;;
10005;SDS011;5042;42.626;23.382;2022-07-15T12:05:08;1.95;;;1.85;;
10005;SDS011;5042;42.626;23.382;2022-07-15T12:07:39;1.80;;;1.70;;
10005;SDS011;5042;42.626;23.382;2022-07-15T12:10:07;2.40;;;1.98;;
10005;SDS011;5042;42.626;23.382;2022-07-15T12:12:39;2.05;;;1.90;;
10005;SDS011;5042;42.626;23.382;2022-07-15T12:15:07;1.80;;;1.70;;
10005;SDS011;5042;42.626;23.382;2022-07-15T12:17:34;2.28;;;1.92;;
10005;SDS011;5042;42.626;23.382;2022-07-15T12:20:03;1.80;;;1.70;;
10005;SDS011;5042;42.626;23.382;2022-07-15T12:22:31;2.28;;;2.17;;
10005;SDS011;5042;42.626;23.382;2022-07-15T12:24:58;2.38;;;2.20;;
10005;SDS011;5042;42.626;23.382;2022-07-15T12:27:31;2.33;;;2.15;;
10005;SDS011;5042;42.626;23.382;2022-07-15T12:30:00;3.67;;;2.50;;
10005;SDS011;5042;42.626;23.382;2022-07-15T12:32:28;2.28;;;2.10;;
10005;SDS011;5042;42.626;23.382;2022-07-15T12:34:55;2.65;;;2.45;;
10005;SDS011;5042;42.626;23.382;2022-07-15T12:37:25;2.95;;;2.75;;
10005;SDS011;5042;42.626;23.382;2022-07-15T12:39:57;2.33;;;2.22;;
10005;SDS011;5042;42.626;23.382;2022-07-15T12:42:26;2.55;;;2.35;;
10005;SDS011;5042;42.626;23.382;2022-07-15T12:45:05;2.50;;;2.30;;
10005;SDS011;5042;42.626;23.382;2022-07-15T12:47:32;2.47;;;2.30;;
10005;SDS011;5042;42.626;23.382;2022-07-15T12:49:59;2.63;;;2.42;;
10005;SDS011;5042;42.626;23.382;2022-07-15T12:52:31;2.80;;;2.60;;
10005;SDS011;5042;42.626;23.382;2022-07-15T12:55:10;2.22;;;2.13;;
10005;SDS011;5042;42.626;23.382;2022-07-15T12:57:39;2.70;;;2.50;;
10005;SDS011;5042;42.626;23.382;2022-07-15T13:00:06;2.83;;;2.63;;
10005;SDS011;5042;42.626;23.382;2022-07-15T13:05:30;3.28;;;2.53;;
10005;SDS011;5042;42.626;23.382;2022-07-15T13:07:59;2.40;;;2.22;;
10005;SDS011;5042;42.626;23.382;2022-07-15T13:10:27;2.63;;;2.40;;
10005;SDS011;5042;42.626;23.382;2022-07-15T13:12:54;2.72;;;2.53;;
10005;SDS011;5042;42.626;23.382;2022-07-15T13:15:21;2.28;;;2.17;;
10005;SDS011;5042;42.626;23.382;2022-07-15T13:17:48;2.30;;;2.17;;
10005;SDS011;5042;42.626;23.382;2022-07-15T13:20:14;2.17;;;2.08;;
10005;SDS011;5042;42.626;23.382;2022-07-15T13:22:41;3.17;;;2.92;;
10005;SDS011;5042;42.626;23.382;2022-07-15T13:25:09;2.45;;;2.30;;
10005;SDS011;5042;42.626;23.382;2022-07-15T13:27:36;2.50;;;2.30;;
10005;SDS011;5042;42.626;23.382;2022-07-15T13:30:04;2.28;;;2.17;;
10005;SDS011;5042;42.626;23.382;2022-07-15T13:32:31;2.70;;;2.50;;
10005;SDS011;5042;42.626;23.382;2022-07-15T13:34:58;2.80;;;2.60;;
10005;SDS011;5042;42.626;23.382;2022-07-15T13:37:25;2.40;;;2.20;;
10005;SDS011;5042;42.626;23.382;2022-07-15T13:39:51;2.15;;;2.05;;
10005;SDS011;5042;42.626;23.382;2022-07-15T13:42:19;2.15;;;2.05;;
10005;SDS011;5042;42.626;23.382;2022-07-15T13:44:49;2.40;;;2.20;;
10005;SDS011;5042;42.626;23.382;2022-07-15T13:47:16;2.80;;;2.40;;
10005;SDS011;5042;42.626;23.382;2022-07-15T13:49:42;2.80;;;2.60;;
10005;SDS011;5042;42.626;23.382;2022-07-15T13:52:27;3.45;;;3.05;;
10005;SDS011;5042;42.626;23.382;2022-07-15T13:54:53;2.90;;;2.70;;
10005;SDS011;5042;42.626;23.382;2022-07-15T13:57:22;3.13;;;2.92;;
10005;SDS011;5042;42.626;23.382;2022-07-15T13:59:48;2.70;;;2.50;;
10005;SDS011;5042;42.626;23.382;2022-07-15T14:02:15;2.78;;;2.58;;
10005;SDS011;5042;42.626;23.382;2022-07-15T14:04:42;4.60;;;4.20;;
10005;SDS011;5042;42.626;23.382;2022-07-15T14:07:09;3.05;;;2.85;;
10005;SDS011;5042;42.626;23.382;2022-07-15T14:09:35;3.47;;;2.50;;
10005;SDS011;5042;42.626;23.382;2022-07-15T14:12:02;2.78;;;2.58;;
10005;SDS011;5042;42.626;23.382;2022-07-15T14:14:30;4.57;;;4.18;;
10005;SDS011;5042;42.626;23.382;2022-07-15T14:16:57;2.75;;;2.55;;
10005;SDS011;5042;42.626;23.382;2022-07-15T14:19:24;2.30;;;2.10;;
10005;SDS011;5042;42.626;23.382;2022-07-15T14:21:51;2.40;;;2.20;;
10005;SDS011;5042;42.626;23.382;2022-07-15T14:24:17;2.70;;;2.50;;
10005;SDS011;5042;42.626;23.382;2022-07-15T14:26:44;2.20;;;2.10;;
10005;SDS011;5042;42.626;23.382;2022-07-15T14:29:11;1.70;;;1.58;;
10005;SDS011;5042;42.626;23.382;2022-07-15T14:31:40;2.17;;;2.08;;
10005;SDS011;5042;42.626;23.382;2022-07-15T14:34:06;3.05;;;2.83;;
10005;SDS011;5042;42.626;23.382;2022-07-15T14:36:33;2.72;;;2.53;;
10005;SDS011;5042;42.626;23.382;2022-07-15T14:39:00;2.10;;;2.00;;
10005;SDS011;5042;42.626;23.382;2022-07-15T14:41:27;1.80;;;1.70;;
10005;SDS011;5042;42.626;23.382;2022-07-15T14:43:53;2.83;;;2.60;;
10005;SDS011;5042;42.626;23.382;2022-07-15T14:46:20;2.88;;;2.00;;
10005;SDS011;5042;42.626;23.382;2022-07-15T14:48:48;2.13;;;2.00;;
10005;SDS011;5042;42.626;23.382;2022-07-15T14:51:15;2.10;;;2.00;;
10005;SDS011;5042;42.626;23.382;2022-07-15T14:53:42;2.15;;;1.52;;
10005;SDS011;5042;42.626;23.382;2022-07-15T14:56:09;2.30;;;2.20;;
10005;SDS011;5042;42.626;23.382;2022-07-15T14:58:35;1.83;;;1.60;;
10005;SDS011;5042;42.626;23.382;2022-07-15T15:01:03;2.58;;;2.38;;
10005;SDS011;5042;42.626;23.382;2022-07-15T15:03:30;2.28;;;2.15;;
10005;SDS011;5042;42.626;23.382;2022-07-15T15:05:58;2.67;;;2.47;;
10005;SDS011;5042;42.626;23.382;2022-07-15T15:08:25;2.58;;;2.38;;
10005;SDS011;5042;42.626;23.382;2022-07-15T15:10:52;2.50;;;2.30;;